sensor_id;sensor_type;location;lat;lon;timestamp;pressure;altitude;pressure_sealevel;temperature;humidity
63607;BME280;51327;52.466;-1.938;2022-12-01T04:00:20;101142.25;;;3.57;100.00
63607;BME280;51327;52.466;-1.938;2022-12-01T04:03:32;101142.22;;;3.59;100.00
63607;BME280;51327;52.466;-1.938;2022-12-01T04:06:55;101143.13;;;3.59;100.00
63607;BME280;51327;52.466;-1.938;2022-12-01T04:10:06;101158.97;;;3.59;100.00
63607;BME280;51327;52.466;-1.938;2022-12-01T04:18:17;101163.31;;;3.62;100.00
63607;BME280;51327;52.466;-1.938;2022-12-01T04:21:16;101165.97;;;3.62;100.00
63607;BME280;51327;52.466;-1.938;2022-12-01T04:24:14;101171.22;;;3.63;100.00
63607;BME280;51327;52.466;-1.938;2022-12-01T04:30:08;101180.84;;;3.67;100.00
63607;BME280;51327;52.466;-1.938;2022-12-01T04:33:06;101172.91;;;3.69;100.00
63607;BME280;51327;52.466;-1.938;2022-12-01T06:29:58;101186.03;;;3.75;100.00
63607;BME280;51327;52.466;-1.938;2022-12-01T06:32:27;101183.41;;;3.75;100.00
63607;BME280;51327;52.466;-1.938;2022-12-01T06:35:42;101188.69;;;3.75;100.00
63607;BME280;51327;52.466;-1.938;2022-12-01T06:38:22;101176.38;;;3.72;100.00
63607;BME280;51327;52.466;-1.938;2022-12-01T06:41:51;101188.69;;;3.72;100.00
63607;BME280;51327;52.466;-1.938;2022-12-01T06:48:27;101199.31;;;3.69;100.00
63607;BME280;51327;52.466;-1.938;2022-12-01T06:51:54;101199.31;;;3.69;100.00
63607;BME280;51327;52.466;-1.938;2022-12-01T06:55:13;101201.09;;;3.67;100.00
63607;BME280;51327;52.466;-1.938;2022-12-01T06:59:03;101202.03;;;3.64;100.00
63607;BME280;51327;52.466;-1.938;2022-12-01T07:02:04;101207.31;;;3.64;100.00
63607;BME280;51327;52.466;-1.938;2022-12-01T07:04:46;101216.09;;;3.66;100.00
63607;BME280;51327;52.466;-1.938;2022-12-01T07:07:38;101220.53;;;3.64;100.00
63607;BME280;51327;52.466;-1.938;2022-12-01T07:10:21;101217.94;;;3.61;100.00
63607;BME280;51327;52.466;-1.938;2022-12-01T07:13:08;101224.09;;;3.60;100.00
63607;BME280;51327;52.466;-1.938;2022-12-01T07:16:30;101223.22;;;3.61;100.00
63607;BME280;51327;52.466;-1.938;2022-12-01T07:19:55;101226.69;;;3.63;100.00
63607;BME280;51327;52.466;-1.938;2022-12-01T07:23:16;101231.09;;;3.63;100.00
63607;BME280;51327;52.466;-1.938;2022-12-01T07:26:03;101232.03;;;3.60;100.00
63607;BME280;51327;52.466;-1.938;2022-12-01T07:29:14;101240.84;;;3.59;100.00
63607;BME280;51327;52.466;-1.938;2022-12-01T07:32:44;101236.44;;;3.60;100.00
63607;BME280;51327;52.466;-1.938;2022-12-01T07:35:24;101239.06;;;3.60;100.00
63607;BME280;51327;52.466;-1.938;2022-12-01T07:38:48;101247.06;;;3.57;100.00
63607;BME280;51327;52.466;-1.938;2022-12-01T08:24:04;101269.00;;;3.60;100.00
63607;BME280;51327;52.466;-1.938;2022-12-01T08:27:11;101273.41;;;3.60;100.00
63607;BME280;51327;52.466;-1.938;2022-12-01T08:32:53;101279.63;;;3.57;100.00
63607;BME280;51327;52.466;-1.938;2022-12-01T08:36:12;101275.16;;;3.61;100.00
63607;BME280;51327;52.466;-1.938;2022-12-01T08:40:00;101281.28;;;3.64;100.00
63607;BME280;51327;52.466;-1.938;2022-12-01T09:39:46;101274.59;;;4.04;100.00
63607;BME280;51327;52.466;-1.938;2022-12-01T09:43:38;101270.13;;;4.09;100.00
63607;BME280;51327;52.466;-1.938;2022-12-01T09:46:56;101270.13;;;4.09;100.00
63607;BME280;51327;52.466;-1.938;2022-12-01T09:52:24;101279.72;;;4.16;100.00
63607;BME280;51327;52.466;-1.938;2022-12-01T09:54:51;101276.16;;;4.18;100.00
63607;BME280;51327;52.466;-1.938;2022-12-01T09:57:27;101276.16;;;4.17;100.00
63607;BME280;51327;52.466;-1.938;2022-12-01T09:59:56;101274.38;;;4.17;100.00
63607;BME280;51327;52.466;-1.938;2022-12-01T10:02:25;101275.22;;;4.19;100.00
63607;BME280;51327;52.466;-1.938;2022-12-01T10:04:51;101272.56;;;4.21;100.00
63607;BME280;51327;52.466;-1.938;2022-12-01T10:07:26;101276.09;;;4.22;100.00
63607;BME280;51327;52.466;-1.938;2022-12-01T10:09:55;101276.94;;;4.25;100.00
63607;BME280;51327;52.466;-1.938;2022-12-01T10:12:25;101271.63;;;4.25;100.00
63607;BME280;51327;52.466;-1.938;2022-12-01T10:15:12;101271.59;;;4.28;100.00
63607;BME280;51327;52.466;-1.938;2022-12-01T10:20:29;101257.38;;;4.35;100.00
63607;BME280;51327;52.466;-1.938;2022-12-01T10:25:30;101251.13;;;4.41;100.00
63607;BME280;51327;52.466;-1.938;2022-12-01T10:28:05;101257.25;;;4.43;100.00
63607;BME280;51327;52.466;-1.938;2022-12-01T10:30:48;101249.28;;;4.45;100.00
63607;BME280;51327;52.466;-1.938;2022-12-01T10:33:21;101252.75;;;4.48;100.00
63607;BME280;51327;52.466;-1.938;2022-12-01T10:35:47;101243.91;;;4.51;100.00
63607;BME280;51327;52.466;-1.938;2022-12-01T10:38:21;101244.75;;;4.53;100.00
63607;BME280;51327;52.466;-1.938;2022-12-01T10:40:50;101240.31;;;4.53;100.00
63607;BME280;51327;52.466;-1.938;2022-12-01T10:43:18;101234.16;;;4.53;100.00
63607;BME280;51327;52.466;-1.938;2022-12-01T10:45:46;101236.75;;;4.56;100.00
63607;BME280;51327;52.466;-1.938;2022-12-01T10:50:48;101239.38;;;4.57;100.00
63607;BME280;51327;52.466;-1.938;2022-12-01T10:53:33;101235.81;;;4.60;100.00
63607;BME280;51327;52.466;-1.938;2022-12-01T10:56:04;101234.00;;;4.62;100.00
63607;BME280;51327;52.466;-1.938;2022-12-01T10:58:39;101239.22;;;4.65;100.00
63607;BME280;51327;52.466;-1.938;2022-12-01T11:01:14;101233.00;;;4.68;100.00
63607;BME280;51327;52.466;-1.938;2022-12-01T11:03:41;101232.97;;;4.71;100.00
63607;BME280;51327;52.466;-1.938;2022-12-01T11:06:06;101229.38;;;4.75;100.00
63607;BME280;51327;52.466;-1.938;2022-12-01T11:11:01;101231.94;;;4.79;100.00
63607;BME280;51327;52.466;-1.938;2022-12-01T11:13:28;101227.50;;;4.81;100.00
63607;BME280;51327;52.466;-1.938;2022-12-01T11:16:01;101220.44;;;4.82;100.00
63607;BME280;51327;52.466;-1.938;2022-12-01T11:23:51;101224.78;;;4.85;100.00
63607;BME280;51327;52.466;-1.938;2022-12-01T11:26:18;101212.41;;;4.85;100.00
63607;BME280;51327;52.466;-1.938;2022-12-01T11:28:55;101213.25;;;4.89;100.00
63607;BME280;51327;52.466;-1.938;2022-12-01T11:31:22;101209.72;;;4.88;100.00
63607;BME280;51327;52.466;-1.938;2022-12-01T11:33:52;101213.28;;;4.86;100.00
63607;BME280;51327;52.466;-1.938;2022-12-01T11:36:30;101215.91;;;4.89;100.00
63607;BME280;51327;52.466;-1.938;2022-12-01T11:38:58;101209.72;;;4.88;100.00
63607;BME280;51327;52.466;-1.938;2022-12-01T11:43:58;101217.72;;;4.85;100.00
63607;BME280;51327;52.466;-1.938;2022-12-01T11:46:27;101211.56;;;4.83;100.00
63607;BME280;51327;52.466;-1.938;2022-12-01T11:48:57;101222.16;;;4.83;100.00
63607;BME280;51327;52.466;-1.938;2022-12-01T11:51:27;101215.94;;;4.86;100.00
63607;BME280;51327;52.466;-1.938;2022-12-01T11:56:30;101203.50;;;4.91;100.00
63607;BME280;51327;52.466;-1.938;2022-12-01T11:59:03;101205.25;;;4.90;100.00
63607;BME280;51327;52.466;-1.938;2022-12-01T12:07:03;101195.50;;;4.92;100.00
63607;BME280;51327;52.466;-1.938;2022-12-01T12:19:50;101192.00;;;4.92;100.00
63607;BME280;51327;52.466;-1.938;2022-12-01T12:35:26;101177.03;;;4.91;100.00
63607;BME280;51327;52.466;-1.938;2022-12-01T12:40:48;101169.09;;;4.91;100.00
63607;BME280;51327;52.466;-1.938;2022-12-01T12:48:22;101171.66;;;4.95;100.00
63607;BME280;51327;52.466;-1.938;2022-12-01T12:53:26;101175.06;;;5.00;100.00
63607;BME280;51327;52.466;-1.938;2022-12-01T12:55:57;101167.97;;;5.02;100.00
63607;BME280;51327;52.466;-1.938;2022-12-01T12:58:28;101167.91;;;5.04;100.00
63607;BME280;51327;52.466;-1.938;2022-12-01T13:01:00;101164.47;;;5.02;100.00
63607;BME280;51327;52.466;-1.938;2022-12-01T13:06:17;101165.31;;;5.02;100.00
63607;BME280;51327;52.466;-1.938;2022-12-01T13:09:18;101158.31;;;5.00;100.00
63607;BME280;51327;52.466;-1.938;2022-12-01T13:16:47;101162.72;;;4.99;100.00
63607;BME280;51327;52.466;-1.938;2022-12-01T13:21:42;101161.00;;;4.97;100.00
63607;BME280;51327;52.466;-1.938;2022-12-01T13:24:11;101162.81;;;4.95;100.00
63607;BME280;51327;52.466;-1.938;2022-12-01T13:26:38;101162.88;;;4.93;100.00
63607;BME280;51327;52.466;-1.938;2022-12-01T13:29:05;101160.22;;;4.93;100.00
63607;BME280;51327;52.466;-1.938;2022-12-01T13:32:20;101166.38;;;4.94;100.00
63607;BME280;51327;52.466;-1.938;2022-12-01T13:34:39;101162.97;;;4.89;100.00
63607;BME280;51327;52.466;-1.938;2022-12-01T13:37:10;101161.28;;;4.83;100.00
63607;BME280;51327;52.466;-1.938;2022-12-01T13:39:37;101164.94;;;4.77;100.00
63607;BME280;51327;52.466;-1.938;2022-12-01T13:42:07;101153.53;;;4.74;100.00
63607;BME280;51327;52.466;-1.938;2022-12-01T13:44:39;101154.53;;;4.67;100.00
63607;BME280;51327;52.466;-1.938;2022-12-01T13:52:37;101149.34;;;4.62;100.00
63607;BME280;51327;52.466;-1.938;2022-12-01T13:57:31;101153.69;;;4.65;100.00
63607;BME280;51327;52.466;-1.938;2022-12-01T14:02:34;101146.75;;;4.59;100.00
63607;BME280;51327;52.466;-1.938;2022-12-01T14:07:47;101142.34;;;4.59;100.00
63607;BME280;51327;52.466;-1.938;2022-12-01T14:12:43;101147.63;;;4.59;100.00
63607;BME280;51327;52.466;-1.938;2022-12-01T14:15:28;101146.72;;;4.60;100.00
63607;BME280;51327;52.466;-1.938;2022-12-01T14:20:43;101143.13;;;4.65;100.00
63607;BME280;51327;52.466;-1.938;2022-12-01T14:31:17;101138.75;;;4.64;100.00
63607;BME280;51327;52.466;-1.938;2022-12-01T14:33:45;101144.91;;;4.64;100.00
63607;BME280;51327;52.466;-1.938;2022-12-01T14:38:43;101147.59;;;4.61;100.00
63607;BME280;51327;52.466;-1.938;2022-12-01T14:41:11;101149.41;;;4.59;100.00
63607;BME280;51327;52.466;-1.938;2022-12-01T14:43:41;101153.00;;;4.55;100.00
63607;BME280;51327;52.466;-1.938;2022-12-01T14:46:26;101147.72;;;4.53;100.00
63607;BME280;51327;52.466;-1.938;2022-12-01T14:48:55;101149.50;;;4.53;100.00
63607;BME280;51327;52.466;-1.938;2022-12-01T14:51:31;101146.00;;;4.52;100.00
63607;BME280;51327;52.466;-1.938;2022-12-01T14:54:00;101152.16;;;4.53;100.00
63607;BME280;51327;52.466;-1.938;2022-12-01T14:56:27;101149.56;;;4.50;100.00
63607;BME280;51327;52.466;-1.938;2022-12-01T14:58:56;101143.38;;;4.49;100.00
63607;BME280;51327;52.466;-1.938;2022-12-01T15:01:28;101144.28;;;4.50;100.00
63607;BME280;51327;52.466;-1.938;2022-12-01T15:03:58;101144.28;;;4.50;100.00
63607;BME280;51327;52.466;-1.938;2022-12-01T15:06:25;101133.81;;;4.44;100.00
63607;BME280;51327;52.466;-1.938;2022-12-01T15:11:35;101144.44;;;4.41;100.00
63607;BME280;51327;52.466;-1.938;2022-12-01T15:14:17;101140.91;;;4.40;100.00
63607;BME280;51327;52.466;-1.938;2022-12-01T15:16:47;101135.63;;;4.40;100.00
63607;BME280;51327;52.466;-1.938;2022-12-01T15:19:28;101137.38;;;4.41;100.00
63607;BME280;51327;52.466;-1.938;2022-12-01T15:21:57;101133.88;;;4.39;100.00
63607;BME280;51327;52.466;-1.938;2022-12-01T15:24:26;101132.09;;;4.39;100.00
63607;BME280;51327;52.466;-1.938;2022-12-01T15:26:53;101138.34;;;4.37;100.00
63607;BME280;51327;52.466;-1.938;2022-12-01T15:31:55;101139.25;;;4.34;100.00
63607;BME280;51327;52.466;-1.938;2022-12-01T15:34:24;101137.56;;;4.32;100.00
63607;BME280;51327;52.466;-1.938;2022-12-01T15:36:53;101140.22;;;4.30;100.00
63607;BME280;51327;52.466;-1.938;2022-12-01T15:39:20;101133.19;;;4.29;100.00
63607;BME280;51327;52.466;-1.938;2022-12-01T15:41:48;101139.34;;;4.28;100.00
63607;BME280;51327;52.466;-1.938;2022-12-01T15:44:21;101134.06;;;4.28;100.00
63607;BME280;51327;52.466;-1.938;2022-12-01T15:46:52;101133.22;;;4.26;100.00
63607;BME280;51327;52.466;-1.938;2022-12-01T15:49:19;101141.22;;;4.23;100.00
63607;BME280;51327;52.466;-1.938;2022-12-01T15:51:48;101143.00;;;4.23;100.00
63607;BME280;51327;52.466;-1.938;2022-12-01T15:54:18;101143.88;;;4.23;100.00
63607;BME280;51327;52.466;-1.938;2022-12-01T15:56:45;101145.66;;;4.21;100.00
63607;BME280;51327;52.466;-1.938;2022-12-01T16:01:42;101149.22;;;4.18;100.00
63607;BME280;51327;52.466;-1.938;2022-12-01T16:04:18;101146.59;;;4.17;100.00
63607;BME280;51327;52.466;-1.938;2022-12-01T16:06:59;101150.16;;;4.16;100.00
63607;BME280;51327;52.466;-1.938;2022-12-01T16:14:48;101145.75;;;4.15;100.00
63607;BME280;51327;52.466;-1.938;2022-12-01T16:17:16;101139.59;;;4.14;100.00
63607;BME280;51327;52.466;-1.938;2022-12-01T16:19:43;101139.59;;;4.14;100.00
63607;BME280;51327;52.466;-1.938;2022-12-01T16:24:48;101144.03;;;4.14;100.00
63607;BME280;51327;52.466;-1.938;2022-12-01T16:29:49;101137.00;;;4.11;100.00
63607;BME280;51327;52.466;-1.938;2022-12-01T16:32:39;101138.84;;;4.06;100.00
63607;BME280;51327;52.466;-1.938;2022-12-01T16:35:04;101129.19;;;4.04;100.00
63607;BME280;51327;52.466;-1.938;2022-12-01T16:37:32;101130.09;;;4.03;100.00
63607;BME280;51327;52.466;-1.938;2022-12-01T16:39:57;101141.56;;;4.02;100.00
63607;BME280;51327;52.466;-1.938;2022-12-01T16:42:23;101135.41;;;4.00;100.00
63607;BME280;51327;52.466;-1.938;2022-12-01T16:44:51;101139.91;;;3.94;100.00
63607;BME280;51327;52.466;-1.938;2022-12-01T16:47:20;101133.78;;;3.94;100.00
63607;BME280;51327;52.466;-1.938;2022-12-01T16:49:48;101139.91;;;3.94;100.00
63607;BME280;51327;52.466;-1.938;2022-12-01T16:52:14;101134.63;;;3.94;100.00
63607;BME280;51327;52.466;-1.938;2022-12-01T16:54:40;101128.50;;;3.92;100.00
63607;BME280;51327;52.466;-1.938;2022-12-01T16:57:07;101133.84;;;3.89;100.00
63607;BME280;51327;52.466;-1.938;2022-12-01T16:59:33;101132.97;;;3.89;100.00
63607;BME280;51327;52.466;-1.938;2022-12-01T17:01:59;101142.66;;;3.88;100.00
63607;BME280;51327;52.466;-1.938;2022-12-01T17:04:27;101135.63;;;3.89;100.00
63607;BME280;51327;52.466;-1.938;2022-12-01T17:06:52;101139.13;;;3.88;100.00
63607;BME280;51327;52.466;-1.938;2022-12-01T17:09:18;101139.13;;;3.88;100.00
63607;BME280;51327;52.466;-1.938;2022-12-01T17:11:46;101141.78;;;3.89;100.00
63607;BME280;51327;52.466;-1.938;2022-12-01T17:14:13;101138.28;;;3.87;100.00
63607;BME280;51327;52.466;-1.938;2022-12-01T17:16:39;101139.19;;;3.86;100.00
63607;BME280;51327;52.466;-1.938;2022-12-01T17:19:04;101144.47;;;3.85;100.00
63607;BME280;51327;52.466;-1.938;2022-12-01T17:21:32;101137.47;;;3.82;100.00
63607;BME280;51327;52.466;-1.938;2022-12-01T17:24:00;101142.75;;;3.82;100.00
63607;BME280;51327;52.466;-1.938;2022-12-01T17:26:25;101137.47;;;3.82;100.00
63607;BME280;51327;52.466;-1.938;2022-12-01T17:28:54;101136.63;;;3.80;100.00
63607;BME280;51327;52.466;-1.938;2022-12-01T17:31:21;101134.00;;;3.80;100.00
63607;BME280;51327;52.466;-1.938;2022-12-01T17:33:49;101134.00;;;3.79;100.00
63607;BME280;51327;52.466;-1.938;2022-12-01T17:36:16;101135.78;;;3.78;100.00
63607;BME280;51327;52.466;-1.938;2022-12-01T17:38:42;101132.28;;;3.78;100.00
63607;BME280;51327;52.466;-1.938;2022-12-01T17:41:13;101131.34;;;3.79;100.00
63607;BME280;51327;52.466;-1.938;2022-12-01T17:43:39;101138.41;;;3.80;100.00
63607;BME280;51327;52.466;-1.938;2022-12-01T17:46:06;101137.50;;;3.79;100.00
63607;BME280;51327;52.466;-1.938;2022-12-01T17:48:37;101142.84;;;3.78;100.00
63607;BME280;51327;52.466;-1.938;2022-12-01T17:51:03;101144.63;;;3.74;100.00
63607;BME280;51327;52.466;-1.938;2022-12-01T17:53:29;101142.91;;;3.71;100.00
63607;BME280;51327;52.466;-1.938;2022-12-01T17:55:56;101147.34;;;3.71;100.00
63607;BME280;51327;52.466;-1.938;2022-12-01T17:58:22;101139.44;;;3.69;100.00
63607;BME280;51327;52.466;-1.938;2022-12-01T18:00:51;101140.34;;;3.67;100.00
63607;BME280;51327;52.466;-1.938;2022-12-01T18:03:19;101136.84;;;3.65;100.00
63607;BME280;51327;52.466;-1.938;2022-12-01T18:05:52;101136.91;;;3.62;100.00
63607;BME280;51327;52.466;-1.938;2022-12-01T18:08:20;101137.84;;;3.58;100.00
63607;BME280;51327;52.466;-1.938;2022-12-01T18:10:46;101137.84;;;3.58;100.00
63607;BME280;51327;52.466;-1.938;2022-12-01T18:13:11;101135.25;;;3.54;100.00
63607;BME280;51327;52.466;-1.938;2022-12-01T18:15:39;101130.84;;;3.53;100.00
63607;BME280;51327;52.466;-1.938;2022-12-01T18:18:04;101140.56;;;3.51;100.00
63607;BME280;51327;52.466;-1.938;2022-12-01T18:20:30;101139.75;;;3.48;100.00
63607;BME280;51327;52.466;-1.938;2022-12-01T18:22:58;101138.03;;;3.44;100.00
63607;BME280;51327;52.466;-1.938;2022-12-01T18:25:23;101137.19;;;3.43;100.00
63607;BME280;51327;52.466;-1.938;2022-12-01T18:27:49;101116.25;;;3.29;100.00
63607;BME280;51327;52.466;-1.938;2022-12-01T18:30:20;101138.84;;;3.47;100.00
63607;BME280;51327;52.466;-1.938;2022-12-01T18:32:46;101140.63;;;3.48;100.00
63607;BME280;51327;52.466;-1.938;2022-12-01T18:35:11;101135.34;;;3.47;100.00
63607;BME280;51327;52.466;-1.938;2022-12-01T18:37:39;101142.47;;;3.43;100.00
63607;BME280;51327;52.466;-1.938;2022-12-01T18:40:05;101138.06;;;3.42;100.00
63607;BME280;51327;52.466;-1.938;2022-12-01T18:42:31;101140.69;;;3.42;100.00
63607;BME280;51327;52.466;-1.938;2022-12-01T18:44:59;101142.47;;;3.43;100.00
63607;BME280;51327;52.466;-1.938;2022-12-01T18:47:24;101141.53;;;3.46;100.00
63607;BME280;51327;52.466;-1.938;2022-12-01T18:49:50;101141.53;;;3.46;100.00
63607;BME280;51327;52.466;-1.938;2022-12-01T18:52:18;101134.53;;;3.42;100.00
63607;BME280;51327;52.466;-1.938;2022-12-01T18:54:44;101138.09;;;3.41;100.00
63607;BME280;51327;52.466;-1.938;2022-12-01T18:57:10;101138.06;;;3.42;100.00
63607;BME280;51327;52.466;-1.938;2022-12-01T20:23:43;101142.13;;;3.00;100.00
63607;BME280;51327;52.466;-1.938;2022-12-01T20:26:11;101153.56;;;3.00;100.00
63607;BME280;51327;52.466;-1.938;2022-12-01T22:35:45;101147.59;;;1.92;100.00
63607;BME280;51327;52.466;-1.938;2022-12-01T22:38:19;101153.75;;;1.89;100.00
63607;BME280;51327;52.466;-1.938;2022-12-01T22:40:53;101142.31;;;1.90;100.00
63607;BME280;51327;52.466;-1.938;2022-12-01T22:43:23;101152.00;;;1.91;100.00
